Time;durP1;ratioP1;P1;durP2;ratioP2;P2;SDS_P1;SDS_P2;PMS_P1;PMS_P2;Temp;Humidity;BMP_temperature;BMP_pressure;BME280_temperature;BME280_humidity;BME280_pressure;Samples;Min_cycle;Max_cycle;Signal;HPM_P1;HPM_P2
2021/06/25 00:00:34;;;;;;;14.18;6.60;;;;;;;20.64;69.54;98939.31;5091982;28;20036;-91
2021/06/25 00:03:01;;;;;;;12.45;6.03;;;;;;;20.57;68.55;98932.56;5092456;28;20525;-91
2021/06/25 00:05:27;;;;;;;13.48;5.93;;;;;;;20.65;66.76;98949.16;5092113;28;20066;-91
2021/06/25 00:07:53;;;;;;;11.13;5.20;;;;;;;20.63;63.71;98942.13;5094147;28;20465;-90
2021/06/25 00:10:19;;;;;;;12.00;5.65;;;;;;;20.60;62.92;98937.78;5094091;28;20032;-90
2021/06/25 00:12:45;;;;;;;9.25;5.15;;;;;;;20.64;62.04;98955.50;5092482;28;20047;-90
2021/06/25 00:15:13;;;;;;;11.88;4.90;;;;;;;20.67;61.29;98962.56;5091412;28;20078;-90
2021/06/25 00:17:40;;;;;;;10.07;4.73;;;;;;;20.64;60.74;98949.25;5091380;28;20396;-90
2021/06/25 00:20:07;;;;;;;8.18;4.18;;;;;;;20.59;60.52;98949.56;5092795;28;20285;-90
2021/06/25 00:22:34;;;;;;;11.50;4.57;;;;;;;20.63;59.77;98950.22;5093291;28;20127;-91
2021/06/25 00:25:00;;;;;;;14.25;4.93;;;;;;;20.47;59.96;98932.28;5093622;28;20040;-89
2021/06/25 00:27:26;;;;;;;8.10;4.20;;;;;;;20.55;58.94;98953.38;5092332;28;20040;-92
2021/06/25 00:29:52;;;;;;;9.50;5.05;;;;;;;20.47;59.85;98942.22;5089529;28;20052;-90
2021/06/25 00:32:19;;;;;;;9.38;4.93;;;;;;;20.35;59.59;98937.63;5091657;28;20085;-92
2021/06/25 00:34:45;;;;;;;9.07;3.90;;;;;;;20.30;59.93;98940.63;5092026;28;20050;-92
2021/06/25 00:37:11;;;;;;;8.07;3.95;;;;;;;20.27;60.50;98940.81;5094164;28;20040;-91
2021/06/25 00:39:36;;;;;;;8.27;4.30;;;;;;;20.16;59.93;98932.53;5093819;28;20032;-90
2021/06/25 00:42:03;;;;;;;7.93;4.10;;;;;;;20.08;60.15;98923.09;5091182;28;20484;-90
2021/06/25 00:44:29;;;;;;;11.93;4.20;;;;;;;19.98;60.14;98910.28;5091530;28;20036;-89
2021/06/25 00:46:54;;;;;;;10.20;4.20;;;;;;;19.90;60.29;98902.66;5089794;28;20394;-91
2021/06/25 00:49:22;;;;;;;7.30;4.03;;;;;;;19.79;60.81;98907.84;5092079;28;20040;-91
2021/06/25 00:51:47;;;;;;;11.30;4.03;;;;;;;19.71;61.41;98913.72;5092265;28;20311;-90
2021/06/25 00:54:14;;;;;;;11.85;4.35;;;;;;;19.63;61.68;98900.69;5088310;28;20444;-90
2021/06/25 00:56:41;;;;;;;8.98;4.93;;;;;;;19.66;61.73;98910.41;5092382;28;20419;-91
2021/06/25 00:59:07;;;;;;;11.38;4.43;;;;;;;19.71;61.73;98924.50;5086463;28;20099;-90
2021/06/25 01:01:33;;;;;;;11.57;4.32;;;;;;;19.62;61.87;98914.28;5089951;28;20119;-90
2021/06/25 01:04:00;;;;;;;9.63;4.47;;;;;;;19.61;61.81;98920.63;5091067;28;20036;-89
2021/06/25 01:09:27;;;;;;;9.80;4.30;;;;;;;19.42;62.16;98883.13;5089762;27;20386;-89
2021/06/25 01:11:53;;;;;;;8.63;4.22;;;;;;;19.42;62.02;98902.88;5090094;28;20055;-93
2021/06/25 01:14:20;;;;;;;9.63;4.85;;;;;;;19.38;61.69;98895.06;5088217;28;20490;-89
2021/06/25 01:16:48;;;;;;;10.10;4.05;;;;;;;19.41;61.46;98901.16;5087878;28;20045;-90
2021/06/25 01:19:15;;;;;;;6.40;3.60;;;;;;;19.43;61.82;98898.34;5089402;28;20071;-92
2021/06/25 01:21:44;;;;;;;6.72;4.00;;;;;;;19.37;61.73;98891.50;5089584;28;20123;-88
2021/06/25 01:24:09;;;;;;;7.22;4.03;;;;;;;19.31;61.55;98878.41;5089148;28;20047;-91
2021/06/25 01:26:35;;;;;;;9.73;4.40;;;;;;;19.38;61.62;98895.94;5090031;28;20044;-91
2021/06/25 01:29:01;;;;;;;9.48;3.83;;;;;;;19.35;61.55;98882.66;5090110;28;20033;-90
2021/06/25 01:31:27;;;;;;;8.98;4.30;;;;;;;19.25;61.30;98879.63;5088513;28;20055;-91
2021/06/25 01:33:54;;;;;;;7.38;4.03;;;;;;;19.28;61.64;98887.56;5089735;28;20044;-89
2021/06/25 01:36:20;;;;;;;8.45;4.40;;;;;;;19.11;62.59;98879.63;5089902;28;20139;-90
2021/06/25 01:38:49;;;;;;;10.23;4.57;;;;;;;19.09;62.15;98881.53;5089823;28;20115;-90
2021/06/25 01:41:14;;;;;;;;;;;;;;;19.02;61.88;98872.94;5090021;28;20410;-91
2021/06/25 01:43:41;;;;;;;9.95;4.13;;;;;;;19.00;62.20;98888.34;5089953;28;19920;-90
2021/06/25 01:46:08;;;;;;;8.63;3.88;;;;;;;18.92;62.14;98876.28;5087615;28;20511;-91
2021/06/25 01:48:34;;;;;;;7.50;4.28;;;;;;;18.77;62.42;98868.13;5089705;28;20142;-90
2021/06/25 01:51:00;;;;;;;7.13;3.65;;;;;;;18.85;61.93;98875.78;5089227;28;20041;-89
2021/06/25 01:53:26;;;;;;;8.52;4.00;;;;;;;18.84;61.96;98868.66;5089446;28;20555;-91
2021/06/25 01:55:54;;;;;;;7.60;3.88;;;;;;;18.78;62.07;98872.59;5089685;28;20071;-88
2021/06/25 01:58:23;;;;;;;8.50;4.40;;;;;;;18.79;62.04;98873.44;5089498;28;20040;-89
2021/06/25 02:00:55;;;;;;;7.70;3.80;;;;;;;18.73;62.40;98885.41;5087553;28;20040;-91
2021/06/25 02:03:21;;;;;;;8.30;4.00;;;;;;;18.68;62.32;98883.00;5087126;28;20060;-91
2021/06/25 02:05:46;;;;;;;8.23;4.78;;;;;;;18.46;63.58;98879.81;5089377;28;20063;-91
2021/06/25 02:08:12;;;;;;;10.45;4.28;;;;;;;18.56;63.21;98888.22;5089105;28;20060;-90
2021/06/25 02:10:38;;;;;;;11.57;4.32;;;;;;;18.50;63.34;98880.50;5089767;28;20080;-90
2021/06/25 02:13:06;;;;;;;9.82;4.70;;;;;;;18.39;63.47;98873.91;5088620;28;20044;-89
2021/06/25 02:15:31;;;;;;;11.77;4.03;;;;;;;18.39;63.59;98873.91;5087456;28;20040;-90
2021/06/25 02:17:57;;;;;;;8.45;4.15;;;;;;;18.29;63.64;98861.94;5088644;28;20120;-91
2021/06/25 02:20:23;;;;;;;7.60;4.50;;;;;;;18.34;64.23;98881.38;5076740;28;20914;-91
2021/06/25 02:22:49;;;;;;;10.20;4.53;;;;;;;18.25;64.79;98876.53;5075575;28;20040;-89
2021/06/25 02:25:15;;;;;;;10.32;4.50;;;;;;;18.14;65.22;98868.19;5075036;28;20052;-88
2021/06/25 02:27:41;;;;;;;10.05;5.07;;;;;;;18.22;64.88;98877.56;5074899;28;20067;-89
2021/06/25 02:30:11;;;;;;;9.98;4.70;;;;;;;18.15;64.96;98870.81;5073683;28;20102;-90
2021/06/25 02:32:37;;;;;;;8.63;4.38;;;;;;;18.20;65.19;98867.84;5074350;28;20036;-90
2021/06/25 02:35:04;;;;;;;8.80;4.95;;;;;;;18.22;65.88;98882.94;5075058;28;20044;-90
2021/06/25 02:37:32;;;;;;;9.57;4.45;;;;;;;18.21;65.21;98875.81;5074733;28;20036;-88
2021/06/25 02:39:58;;;;;;;8.95;4.20;;;;;;;18.15;65.84;98881.56;5075032;28;20036;-90
2021/06/25 02:42:24;;;;;;;7.75;4.38;;;;;;;18.19;65.71;98883.09;5074704;28;20033;-91
2021/06/25 02:44:50;;;;;;;8.38;4.43;;;;;;;18.09;65.44;98864.91;5074880;28;20044;-90
2021/06/25 02:47:17;;;;;;;8.20;4.10;;;;;;;18.05;65.97;98874.97;5072253;28;20559;-90
2021/06/25 02:49:43;;;;;;;9.27;4.50;;;;;;;18.04;65.34;98882.19;5074644;28;20498;-88
2021/06/25 02:52:09;;;;;;;12.23;5.22;;;;;;;18.01;65.40;98868.88;5074318;28;20059;-89
2021/06/25 02:54:36;;;;;;;9.80;5.15;;;;;;;18.13;65.69;98894.25;5074660;28;20047;-91
2021/06/25 02:57:02;;;;;;;10.15;5.45;;;;;;;18.06;65.47;98877.56;5074656;28;20074;-90
2021/06/25 02:59:30;;;;;;;9.80;4.53;;;;;;;18.15;65.22;98892.34;5074506;28;20060;-90
2021/06/25 03:01:56;;;;;;;11.73;5.43;;;;;;;18.04;65.44;98881.28;5072313;28;20036;-91
2021/06/25 03:04:23;;;;;;;10.35;4.68;;;;;;;18.07;65.17;98899.97;5074684;28;20154;-89
2021/06/25 03:06:49;;;;;;;8.02;4.45;;;;;;;18.11;65.60;98912.28;5071037;28;20042;-93
2021/06/25 03:09:15;;;;;;;10.32;4.50;;;;;;;18.16;65.22;98910.22;5074380;28;20131;-90
2021/06/25 03:11:41;;;;;;;9.57;4.97;;;;;;;18.13;65.53;98905.00;5074771;28;20127;-89
2021/06/25 03:14:07;;;;;;;7.55;4.50;;;;;;;17.95;65.61;98893.41;5073730;28;20040;-88
2021/06/25 03:16:33;;;;;;;13.55;4.60;;;;;;;18.09;65.82;98919.59;5072281;28;20048;-90
2021/06/25 03:18:59;;;;;;;7.38;4.60;;;;;;;18.06;65.79;98914.34;5074231;28;20115;-89
2021/06/25 03:21:26;;;;;;;8.00;4.45;;;;;;;18.15;65.78;98921.06;5074483;28;20060;-90
2021/06/25 03:23:51;;;;;;;9.90;4.28;;;;;;;18.04;65.82;98903.69;5074510;28;20037;-90
2021/06/25 03:26:17;;;;;;;7.32;4.55;;;;;;;18.12;65.51;98915.84;5074103;28;20039;-90
2021/06/25 03:28:43;;;;;;;6.85;4.45;;;;;;;18.09;65.93;98913.34;5073958;28;20060;-91
2021/06/25 03:31:09;;;;;;;9.60;5.10;;;;;;;18.02;65.92;98915.47;5070787;28;20097;-90
2021/06/25 03:33:35;;;;;;;13.90;4.40;;;;;;;18.08;65.82;98920.53;5074401;28;20094;-89
2021/06/25 03:36:01;;;;;;;11.60;4.80;;;;;;;18.01;66.09;98922.69;5073678;28;20047;-91
2021/06/25 03:38:30;;;;;;;7.65;4.43;;;;;;;17.80;66.27;98908.56;5073941;28;20094;-90
2021/06/25 03:40:56;;;;;;;8.65;4.50;;;;;;;17.81;66.81;98928.28;5074166;28;20066;-91
2021/06/25 03:43:22;;;;;;;8.10;5.00;;;;;;;17.77;66.45;98918.63;5073882;28;20090;-90
2021/06/25 03:45:48;;;;;;;8.05;4.85;;;;;;;17.73;66.79;98909.84;5071909;28;20032;-89
2021/06/25 03:48:14;;;;;;;8.80;4.70;;;;;;;17.79;66.75;98922.97;5072982;28;20136;-90
2021/06/25 03:50:40;;;;;;;8.18;4.28;;;;;;;17.79;66.76;98922.97;5069776;28;20128;-90
2021/06/25 03:53:06;;;;;;;7.50;4.22;;;;;;;17.73;66.74;98912.53;5073772;28;20040;-90
2021/06/25 03:55:33;;;;;;;8.65;4.70;;;;;;;17.76;66.85;98907.00;5073680;28;20036;-91
2021/06/25 03:57:59;;;;;;;12.82;4.68;;;;;;;17.79;67.10;98905.97;5073489;28;20040;-89
2021/06/25 04:00:25;;;;;;;9.38;4.38;;;;;;;17.72;67.24;98894.66;5071358;28;20025;-90
2021/06/25 04:02:51;;;;;;;9.23;4.78;;;;;;;17.71;67.20;98886.69;5073619;28;20040;-90
2021/06/25 04:05:17;;;;;;;9.00;4.43;;;;;;;17.83;66.77;98892.28;5073268;28;20064;-90
2021/06/25 04:07:43;;;;;;;9.68;4.78;;;;;;;18.04;66.50;98911.78;5071980;28;20131;-90
2021/06/25 04:10:11;;;;;;;7.15;4.50;;;;;;;18.00;66.65;98909.31;5070292;28;20131;-91
2021/06/25 04:12:39;;;;;;;10.07;4.77;;;;;;;17.99;66.31;98912.97;5073232;28;20048;-91
2021/06/25 04:15:06;;;;;;;10.18;4.70;;;;;;;18.04;66.16;98929.72;5071390;28;20278;-90
2021/06/25 04:17:32;;;;;;;8.43;5.47;;;;;;;18.10;66.39;98948.22;5073161;28;20509;-88
2021/06/25 04:19:58;;;;;;;10.23;4.63;;;;;;;18.04;67.00;98933.31;5073230;28;20040;-90
2021/06/25 04:22:24;;;;;;;7.43;4.35;;;;;;;18.02;66.98;98929.81;5073257;28;20039;-90
2021/06/25 04:24:50;;;;;;;9.82;4.57;;;;;;;18.00;66.59;98914.69;5073154;28;20051;-88
2021/06/25 04:27:16;;;;;;;7.78;4.82;;;;;;;18.02;66.69;98924.44;5072682;28;20047;-90
2021/06/25 04:29:44;;;;;;;9.30;4.55;;;;;;;18.13;66.88;98931.03;5072974;28;20044;-90
2021/06/25 04:32:12;;;;;;;9.17;4.63;;;;;;;18.24;66.36;98931.31;5070864;28;20074;-91
2021/06/25 04:34:38;;;;;;;8.05;4.28;;;;;;;18.09;66.36;98916.03;5073211;28;20047;-90
2021/06/25 04:37:04;;;;;;;9.68;4.70;;;;;;;18.22;65.73;98928.72;5072888;28;20032;-89
2021/06/25 04:39:30;;;;;;;11.57;4.40;;;;;;;18.18;64.89;98928.97;5072800;28;20040;-89
2021/06/25 04:41:56;;;;;;;7.57;4.22;;;;;;;18.36;65.32;98932.44;5072203;28;20561;-90
2021/06/25 04:44:21;;;;;;;11.82;4.28;;;;;;;18.41;64.87;98920.47;5072605;28;20057;-91
2021/06/25 04:46:49;;;;;;;7.38;4.00;;;;;;;18.67;62.20;98920.78;5070990;28;20094;-89
2021/06/25 04:49:14;;;;;;;8.98;3.88;;;;;;;18.90;62.54;98937.50;5072573;28;20046;-89
2021/06/25 04:51:40;;;;;;;7.20;3.97;;;;;;;18.88;63.13;98927.66;5072812;28;20033;-91
2021/06/25 04:54:06;;;;;;;9.88;4.25;;;;;;;18.96;63.91;98929.06;5072678;28;20036;-90
2021/06/25 04:56:32;;;;;;;6.63;4.03;;;;;;;19.07;63.32;98916.66;5073009;28;20138;-92
2021/06/25 04:58:58;;;;;;;8.43;4.38;;;;;;;19.36;61.45;98910.47;5072621;28;20132;-91
2021/06/25 05:01:24;;;;;;;5.70;3.72;;;;;;;19.79;58.15;98924.06;5071033;28;20033;-90
2021/06/25 05:03:51;;;;;;;8.45;3.83;;;;;;;20.15;56.72;98934.38;5073095;28;20033;-91
2021/06/25 05:06:17;;;;;;;8.00;3.78;;;;;;;20.00;57.54;98924.53;5072522;28;20128;-92
2021/06/25 05:08:42;;;;;;;6.60;3.80;;;;;;;20.01;57.08;98927.13;5072526;28;20139;-92
2021/06/25 05:11:08;;;;;;;8.15;4.60;;;;;;;20.06;57.57;98907.94;5073432;28;20508;-93
2021/06/25 05:13:34;;;;;;;8.00;4.10;;;;;;;20.25;57.78;98915.72;5072776;28;20153;-91
2021/06/25 05:16:00;;;;;;;7.25;4.90;;;;;;;20.30;57.38;98916.31;5070315;28;20040;-91
2021/06/25 05:18:26;;;;;;;8.52;4.50;;;;;;;20.40;56.93;98909.31;5072635;28;20040;-91
2021/06/25 05:20:53;;;;;;;7.35;4.20;;;;;;;20.28;57.08;98897.50;5072625;28;20082;-92
2021/06/25 05:23:19;;;;;;;11.30;4.50;;;;;;;20.69;55.68;98912.88;5072572;28;20078;-91
2021/06/25 05:25:46;;;;;;;7.15;4.00;;;;;;;21.22;54.45;98901.22;5074041;28;20071;-91
2021/06/25 05:28:13;;;;;;;5.88;3.55;;;;;;;21.44;53.18;98892.53;5074106;28;20050;-89
2021/06/25 05:30:39;;;;;;;6.55;4.05;;;;;;;21.81;51.80;98889.91;5071011;28;20521;-89
2021/06/25 05:33:05;;;;;;;7.57;3.58;;;;;;;22.08;50.94;98889.78;5073902;28;20040;-90
2021/06/25 05:35:31;;;;;;;8.68;3.53;;;;;;;22.55;49.55;98899.88;5069488;28;20103;-90
2021/06/25 05:37:59;;;;;;;7.97;3.65;;;;;;;22.40;49.50;98883.88;5072410;28;20041;-90
2021/06/25 05:40:25;;;;;;;4.82;3.67;;;;;;;22.65;49.35;98875.66;5072279;28;20045;-90
2021/06/25 05:42:51;;;;;;;6.35;3.55;;;;;;;22.21;49.24;98885.22;5072534;28;20106;-91
2021/06/25 05:45:17;;;;;;;7.40;3.40;;;;;;;22.29;48.95;98855.75;5070574;28;20044;-91
2021/06/25 05:47:43;;;;;;;5.82;3.55;;;;;;;22.46;48.49;98843.63;5072556;28;20040;-90
2021/06/25 05:50:09;;;;;;;7.15;4.05;;;;;;;22.19;49.42;98860.06;5071914;28;20047;-90
2021/06/25 05:52:35;;;;;;;8.50;3.40;;;;;;;22.34;48.22;98861.69;5072535;28;20048;-91
2021/06/25 05:55:02;;;;;;;6.05;3.50;;;;;;;22.58;48.35;98879.81;5072933;28;20040;-93
2021/06/25 05:57:28;;;;;;;12.93;4.15;;;;;;;22.76;47.70;98867.56;5075808;28;20041;-90
2021/06/25 05:59:54;;;;;;;9.18;4.95;;;;;;;22.90;47.36;98862.94;5074122;28;20041;-90
2021/06/25 06:02:20;;;;;;;6.68;3.80;;;;;;;23.22;46.23;98879.47;5075403;28;20498;-91
2021/06/25 06:04:46;;;;;;;9.00;4.20;;;;;;;23.35;46.75;98874.81;5076209;28;20036;-90
2021/06/25 06:07:13;;;;;;;7.70;3.67;;;;;;;23.25;45.59;98873.84;5075450;28;20411;-90
2021/06/25 06:09:39;;;;;;;7.03;3.47;;;;;;;23.09;46.83;98895.84;5075846;28;20106;-92
2021/06/25 06:12:07;;;;;;;6.72;3.75;;;;;;;22.66;46.61;98890.94;5075642;28;20479;-92
2021/06/25 06:14:33;;;;;;;;;;;;;;;22.56;46.67;98903.44;5076425;28;20397;-92
2021/06/25 06:16:59;;;;;;;5.95;3.40;;;;;;;22.19;48.04;98881.75;5073576;28;19932;-92
2021/06/25 06:19:25;;;;;;;7.10;3.75;;;;;;;22.65;47.42;98893.78;5075036;28;20119;-91
2021/06/25 06:36:52;;;;;;;5.80;3.17;;;;;;;24.14;43.14;98880.38;5071494;28;20864;-92
2021/06/25 06:39:18;;;;;;;5.20;3.15;;;;;;;24.13;43.92;98892.22;5072423;28;20050;-92
2021/06/25 06:41:44;;;;;;;11.38;4.80;;;;;;;24.48;43.76;98882.16;5067537;27;20045;-93
2021/06/25 06:44:10;;;;;;;4.63;3.30;;;;;;;24.65;42.42;98880.78;5051785;28;20043;-89
2021/06/25 06:46:36;;;;;;;7.70;3.75;;;;;;;24.95;43.04;98885.50;5054801;28;20065;-89
2021/06/25 06:49:03;;;;;;;8.77;3.88;;;;;;;24.98;43.35;98883.41;5092676;28;20039;-92
2021/06/25 06:51:29;;;;;;;8.63;4.40;;;;;;;24.99;42.93;98865.22;5061905;27;20045;-92
2021/06/25 06:53:57;;;;;;;7.50;3.35;;;;;;;25.29;42.75;98893.56;5077531;28;20052;-90
2021/06/25 06:56:24;;;;;;;9.03;3.40;;;;;;;25.34;41.82;98878.53;5078137;27;20034;-94
2021/06/25 06:58:51;;;;;;;8.10;3.90;;;;;;;24.71;42.76;98889.31;5073775;27;20052;-92
2021/06/25 07:01:17;;;;;;;9.32;3.80;;;;;;;24.69;42.37;98880.41;5060589;28;20042;-91
2021/06/25 07:03:43;;;;;;;6.63;3.58;;;;;;;24.61;42.27;98891.06;5062603;28;20534;-92
2021/06/25 07:06:09;;;;;;;10.90;6.05;;;;;;;24.80;41.83;98890.38;5078944;28;20039;-92
2021/06/25 07:08:35;;;;;;;11.18;4.90;;;;;;;25.17;41.18;98898.16;5081719;27;20049;-93
2021/06/25 07:11:03;;;;;;;25.23;7.18;;;;;;;25.21;40.68;98884.19;5097326;28;20048;-93
2021/06/25 07:13:28;;;;;;;16.55;9.55;;;;;;;25.50;40.24;98894.41;5059062;27;20074;-94
2021/06/25 07:15:55;;;;;;;23.77;13.43;;;;;;;25.73;39.99;98877.94;5076563;28;20500;-93
2021/06/25 07:18:21;;;;;;;10.18;4.78;;;;;;;26.11;38.47;98911.84;5059646;27;20061;-92
2021/06/25 07:20:46;;;;;;;11.52;4.95;;;;;;;26.19;39.13;98887.50;5059055;28;20038;-92
2021/06/25 07:23:13;;;;;;;8.43;3.38;;;;;;;26.51;37.52;98886.44;5077763;28;20505;-91
2021/06/25 07:25:39;;;;;;;6.65;3.30;;;;;;;26.42;36.97;98885.41;5080757;27;20389;-91
2021/06/25 07:28:06;;;;;;;7.90;3.15;;;;;;;26.27;37.98;98895.84;5073192;27;20075;-92
2021/06/25 07:30:32;;;;;;;6.53;3.30;;;;;;;25.89;38.37;98891.94;5090763;28;20039;-90
2021/06/25 07:32:58;;;;;;;7.47;3.15;;;;;;;25.83;38.62;98870.69;5076162;28;20046;-92
2021/06/25 07:35:24;;;;;;;8.32;3.97;;;;;;;26.21;37.76;98885.50;5095568;28;20507;-92
2021/06/25 07:37:50;;;;;;;7.43;3.65;;;;;;;26.37;37.72;98871.31;5075313;27;20046;-93
2021/06/25 07:40:18;;;;;;;8.57;3.40;;;;;;;26.48;37.31;98884.88;5067668;28;20057;-92
2021/06/25 07:42:44;;;;;;;10.57;3.97;;;;;;;26.71;37.76;98874.59;5084074;27;20036;-91
2021/06/25 07:45:12;;;;;;;9.85;3.42;;;;;;;26.75;37.02;98870.56;5082846;28;20044;-94
2021/06/25 07:47:41;;;;;;;13.23;3.47;;;;;;;27.01;37.39;98870.03;5058167;27;20054;-91
2021/06/25 07:50:09;;;;;;;10.57;3.60;;;;;;;26.82;38.90;98877.19;5077656;28;20421;-92
2021/06/25 07:52:35;;;;;;;13.23;4.63;;;;;;;26.61;37.39;98866.41;5065762;28;20060;-91
2021/06/25 07:55:01;;;;;;;7.30;3.80;;;;;;;24.84;40.76;98871.97;5062423;28;20124;-90
2021/06/25 07:57:27;;;;;;;9.52;3.97;;;;;;;24.58;42.52;98875.00;5064806;28;20045;-91
2021/06/25 07:59:53;;;;;;;10.68;3.90;;;;;;;25.16;42.33;98874.66;5054808;28;20039;-90
2021/06/25 08:02:20;;;;;;;10.25;3.80;;;;;;;25.68;39.91;98863.88;5051782;28;20046;-91
2021/06/25 08:04:46;;;;;;;18.30;4.47;;;;;;;26.03;39.77;98894.31;5064563;28;20032;-90
2021/06/25 08:07:13;;;;;;;11.40;4.32;;;;;;;26.16;39.46;98875.00;5073109;28;20124;-90
2021/06/25 08:09:39;;;;;;;23.67;5.82;;;;;;;26.63;39.54;98883.50;5074870;28;20047;-91
2021/06/25 08:12:06;;;;;;;21.85;4.55;;;;;;;26.95;39.10;98870.59;5053160;28;20106;-91
2021/06/25 08:14:32;;;;;;;12.05;4.10;;;;;;;26.57;38.71;98881.31;5074834;28;20039;-93
2021/06/25 08:17:11;;;;;;;13.77;4.40;;;;;;;26.68;39.36;98879.47;5051401;28;20049;-90
2021/06/25 08:19:38;;;;;;;9.10;3.72;;;;;;;26.98;38.85;98860.25;5075414;28;20049;-90
2021/06/25 08:22:06;;;;;;;9.85;4.18;;;;;;;27.00;38.83;98868.28;5045289;28;20494;-92
2021/06/25 08:24:34;;;;;;;11.20;3.80;;;;;;;26.83;39.23;98861.69;5068810;28;20467;-92
2021/06/25 08:27:00;;;;;;;17.42;11.95;;;;;;;26.37;40.50;98854.97;5051849;28;20070;-90
2021/06/25 08:29:28;;;;;;;10.73;5.18;;;;;;;26.70;41.10;98866.56;5060370;28;20042;-92
2021/06/25 08:31:54;;;;;;;10.02;4.07;;;;;;;27.14;39.74;98858.81;5046742;28;20045;-91
2021/06/25 08:34:20;;;;;;;15.20;4.93;;;;;;;27.29;39.40;98846.47;5067394;28;20081;-91
2021/06/25 08:36:50;;;;;;;8.57;4.35;;;;;;;27.61;38.60;98851.56;5105855;28;20114;-91
2021/06/25 08:39:16;;;;;;;11.82;4.40;;;;;;;27.89;38.84;98848.06;5054898;27;20034;-92
2021/06/25 08:41:43;;;;;;;8.07;4.15;;;;;;;27.40;38.90;98851.75;5042783;28;20044;-92
2021/06/25 08:44:09;;;;;;;13.43;4.53;;;;;;;26.73;40.99;98845.28;5048908;28;20042;-91
2021/06/25 08:46:35;;;;;;;9.35;4.70;;;;;;;27.41;40.46;98852.63;5070962;28;20126;-90
2021/06/25 08:52:05;;;;;;;14.82;4.50;;;;;;;28.02;39.14;98843.13;5091793;27;20382;-91
2021/06/25 08:54:32;;;;;;;12.13;3.97;;;;;;;28.03;38.56;98836.63;5091509;28;20383;-93
2021/06/25 08:56:59;;;;;;;19.30;10.85;;;;;;;28.40;38.06;98842.03;5091438;28;20397;-92
2021/06/25 08:59:25;;;;;;;8.38;4.25;;;;;;;28.73;36.83;98834.22;5091816;28;20040;-91
2021/06/25 09:01:51;;;;;;;9.52;4.10;;;;;;;28.84;37.02;98836.75;5088115;28;20062;-92
2021/06/25 09:04:31;;;;;;;9.48;4.10;;;;;;;28.71;36.01;98835.38;5093834;28;20027;-92
2021/06/25 09:06:57;;;;;;;8.98;4.63;;;;;;;27.83;36.89;98822.16;5090386;28;20044;-91
2021/06/25 09:09:36;;;;;;;10.65;4.30;;;;;;;27.98;37.91;98842.56;5090973;28;20126;-93
2021/06/25 09:12:07;;;;;;;9.95;3.90;;;;;;;28.41;36.71;98845.63;5086961;28;20131;-93
2021/06/25 09:14:54;;;;;;;6.85;3.78;;;;;;;28.71;36.11;98825.28;5091137;28;20123;-91
2021/06/25 09:17:23;;;;;;;9.98;4.22;;;;;;;29.03;36.04;98826.63;5085597;28;20052;-91
2021/06/25 09:19:49;;;;;;;6.30;3.78;;;;;;;29.43;35.25;98833.47;5092892;28;20036;-94
2021/06/25 09:22:15;;;;;;;11.00;4.45;;;;;;;29.50;33.41;98820.88;5092715;28;20093;-92
2021/06/25 09:24:42;;;;;;;12.13;3.70;;;;;;;29.52;33.64;98813.34;5093398;28;20051;-93
2021/06/25 09:27:09;;;;;;;7.70;4.18;;;;;;;29.09;34.88;98809.59;5091661;28;20059;-92
2021/06/25 09:29:40;;;;;;;8.95;3.42;;;;;;;28.54;34.84;98809.72;5086114;28;20036;-91
2021/06/25 09:32:08;;;;;;;11.38;4.05;;;;;;;28.18;35.79;98807.78;5088826;28;20048;-91
2021/06/25 09:34:37;;;;;;;13.57;4.20;;;;;;;27.56;36.84;98809.31;5090060;28;20506;-90
2021/06/25 09:37:04;;;;;;;11.45;3.50;;;;;;;27.37;36.51;98829.34;5090087;28;20102;-90
2021/06/25 09:39:30;;;;;;;10.30;3.40;;;;;;;27.66;36.49;98811.00;5086823;28;20032;-92
2021/06/25 09:41:57;;;;;;;11.25;4.05;;;;;;;28.21;36.72;98823.00;5090528;28;20558;-91
2021/06/25 09:44:24;;;;;;;8.82;3.90;;;;;;;28.90;35.22;98826.16;5088318;28;20068;-91
2021/06/25 09:46:52;;;;;;;7.47;3.83;;;;;;;28.96;33.64;98815.44;5087036;28;20086;-93
2021/06/25 09:49:24;;;;;;;11.80;3.95;;;;;;;29.25;33.21;98815.19;5085196;28;20048;-92
2021/06/25 09:51:54;;;;;;;7.78;3.67;;;;;;;29.43;33.65;98823.38;5089903;28;20052;-91
2021/06/25 09:54:21;;;;;;;8.73;3.30;;;;;;;29.63;32.40;98806.72;5083384;28;20048;-87
2021/06/25 10:02:33;;;;;;;9.45;3.40;;;;;;;30.33;31.75;98801.09;5109545;27;1378491;-93
2021/06/25 10:05:05;;;;;;;8.38;3.22;;;;;;;30.27;31.99;98798.97;5168992;27;20046;-91
2021/06/25 10:07:31;;;;;;;6.78;3.40;;;;;;;29.79;32.86;98787.66;5158183;27;20056;-90
2021/06/25 10:09:58;;;;;;;7.32;3.50;;;;;;;29.92;32.50;98778.13;5161493;27;20031;-89
2021/06/25 10:12:30;;;;;;;7.88;3.40;;;;;;;30.07;31.10;98774.56;5163103;27;20065;-91
2021/06/25 10:14:56;;;;;;;8.15;3.10;;;;;;;30.28;30.72;98782.38;5154338;27;20053;-92
2021/06/25 10:17:26;;;;;;;9.75;3.50;;;;;;;30.60;30.40;98786.25;5158525;27;20118;-91
2021/06/25 10:19:57;;;;;;;7.20;3.20;;;;;;;30.75;29.70;98780.91;5159997;27;20479;-93
2021/06/25 10:22:26;;;;;;;8.73;3.40;;;;;;;29.75;30.97;98771.69;5160319;27;20066;-91
2021/06/25 10:24:53;;;;;;;11.75;3.65;;;;;;;30.08;31.12;98765.34;5160467;27;20039;-89
2021/06/25 10:27:20;;;;;;;11.20;3.33;;;;;;;30.13;31.08;98769.47;5162547;27;20039;-90
2021/06/25 10:29:47;;;;;;;7.30;3.22;;;;;;;29.93;32.43;98769.75;5161717;27;20039;-91
2021/06/25 10:32:16;;;;;;;6.45;3.03;;;;;;;29.35;32.58;98776.75;5157848;27;20035;-91
2021/06/25 10:34:43;;;;;;;7.22;3.50;;;;;;;29.87;31.53;98760.28;5161663;27;20047;-90
2021/06/25 10:37:15;;;;;;;9.95;3.08;;;;;;;29.88;30.85;98770.25;5159573;27;20039;-92
2021/06/25 10:39:41;;;;;;;8.20;3.83;;;;;;;28.55;33.10;98781.38;5164470;27;20039;-89
2021/06/25 10:42:10;;;;;;;7.95;3.30;;;;;;;28.78;33.40;98777.16;5158989;27;20030;-87
2021/06/25 10:44:40;;;;;;;8.38;3.30;;;;;;;29.46;33.22;98773.72;5163595;27;20039;-90
2021/06/25 10:47:25;;;;;;;7.88;3.25;;;;;;;29.10;33.44;98783.94;5158376;27;20058;-91
2021/06/25 10:50:20;;;;;;;10.15;3.60;;;;;;;28.99;34.01;98789.63;5161951;27;20038;-91
2021/06/25 10:53:09;;;;;;;8.20;3.25;;;;;;;28.38;34.97;98793.97;5161711;27;20326;-89
2021/06/25 10:55:44;;;;;;;6.85;3.45;;;;;;;29.24;33.71;98774.28;5158779;27;20146;-89
2021/06/25 10:58:10;;;;;;;7.15;3.17;;;;;;;29.72;33.21;98761.91;5158921;27;20088;-90
2021/06/25 11:03:46;;;;;;;10.48;3.95;;;;;;;30.30;33.58;98755.66;5131632;27;20371;-89
2021/06/25 11:06:31;;;;;;;;;;;;;;;30.67;32.37;98756.22;5131111;27;20059;-89
2021/06/25 11:09:01;;;;;;;12.93;4.35;;;;;;;30.13;32.98;98755.75;5130432;28;19993;-90
2021/06/25 11:11:27;;;;;;;7.68;3.83;;;;;;;30.31;31.88;98759.25;5130825;27;20488;-89
2021/06/25 11:13:53;;;;;;;6.95;3.88;;;;;;;30.63;31.48;98739.22;5128697;27;20050;-88
2021/06/25 11:16:20;;;;;;;9.48;4.55;;;;;;;30.72;32.29;98748.31;5126265;28;20027;-88
2021/06/25 11:18:48;;;;;;;5.90;3.83;;;;;;;30.80;32.52;98736.50;5128366;28;20081;-91
2021/06/25 11:21:14;;;;;;;8.53;3.93;;;;;;;31.08;32.30;98737.88;5131749;27;20045;-88
2021/06/25 11:23:42;;;;;;;9.30;3.88;;;;;;;31.05;33.93;98737.38;5130101;28;20126;-89
2021/06/25 11:26:22;;;;;;;6.65;3.80;;;;;;;30.80;32.37;98723.63;5130942;27;20366;-89
2021/06/25 11:28:50;;;;;;;13.20;4.30;;;;;;;31.11;32.51;98733.94;5126434;27;20047;-89
2021/06/25 11:31:20;;;;;;;;;;;;;;;31.37;31.51;98730.94;5127831;27;20070;-90
2021/06/25 11:33:54;;;;;;;5.80;3.03;;;;;;;31.15;27.22;98718.81;5129197;28;19955;-90
2021/06/25 11:36:51;;;;;;;7.30;3.40;;;;;;;31.15;26.45;98720.72;5130266;27;20043;-88
2021/06/25 11:39:30;;;;;;;;;;;;;;;31.31;27.36;98720.66;5126129;28;20038;-92
2021/06/25 11:41:58;;;;;;;7.45;3.10;;;;;;;31.08;26.66;98728.78;5128819;28;20311;-88
2021/06/25 11:44:26;;;;;;;6.32;2.88;;;;;;;30.60;27.25;98723.13;5127309;27;20039;-89
2021/06/25 11:46:56;;;;;;;6.53;3.03;;;;;;;30.51;27.93;98718.63;5126163;27;20038;-90
2021/06/25 11:49:26;;;;;;;6.32;2.95;;;;;;;30.77;26.55;98718.47;5137163;27;20046;-89
2021/06/25 11:51:51;;;;;;;7.28;2.92;;;;;;;30.63;25.67;98703.56;5130368;27;20404;-89
2021/06/25 11:54:20;;;;;;;6.32;2.67;;;;;;;30.88;25.72;98709.94;5129331;28;20043;-89
2021/06/25 11:56:46;;;;;;;6.82;3.00;;;;;;;31.20;25.61;98716.38;5126924;28;20059;-89
2021/06/25 11:59:14;;;;;;;6.80;3.15;;;;;;;31.38;26.19;98723.56;5129139;27;20051;-89
2021/06/25 12:02:03;;;;;;;5.50;2.93;;;;;;;31.45;26.52;98717.22;5125738;27;20096;-90